Time;durP1;ratioP1;P1;durP2;ratioP2;P2;SDS_P1;SDS_P2;PMS_P1;PMS_P2;Temp;Humidity;BMP_temperature;BMP_pressure;BME280_temperature;BME280_humidity;BME280_pressure;Samples;Min_cycle;Max_cycle;Signal;HPM_P1;HPM_P2
2023/07/17 00:01:34;;;;;;;13.32;10.27;;;;;;;;;;4861552;29;20053;-83
2023/07/17 00:04:19;;;;;;;13.43;10.10;;;;;;;;;;4861079;29;20050;-83
2023/07/17 00:07:06;;;;;;;13.90;10.25;;;;;;;;;;4861298;29;20053;-81
2023/07/17 00:09:51;;;;;;;13.52;10.48;;;;;;;;;;4866502;29;20041;-81
2023/07/17 00:12:38;;;;;;;16.50;10.57;;;;;;;;;;4866908;29;20049;-83
2023/07/17 00:15:24;;;;;;;16.15;9.93;;;;;;;;;;4861474;29;20045;-80
2023/07/17 00:18:10;;;;;;;15.73;10.23;;;;;;;;;;4861038;29;20484;-81
2023/07/17 00:20:55;;;;;;;13.27;10.60;;;;;;;;;;4861286;29;20045;-80
2023/07/17 00:23:40;;;;;;;14.68;10.38;;;;;;;;;;4867618;29;20045;-83
2023/07/17 00:26:26;;;;;;;12.68;11.02;;;;;;;;;;4860314;29;20498;-83
2023/07/17 00:29:22;;;;;;;13.35;10.60;;;;;;;;;;4870004;29;20045;-83
2023/07/17 00:32:08;;;;;;;16.15;10.57;;;;;;;;;;4866337;29;20399;-80
2023/07/17 00:34:54;;;;;;;13.43;10.98;;;;;;;;;;4865908;29;20049;-80
2023/07/17 00:37:41;;;;;;;15.93;10.95;;;;;;;;;;4859553;29;20041;-80
2023/07/17 00:40:27;;;;;;;13.55;10.05;;;;;;;;;;4866939;29;20049;-80
2023/07/17 00:43:12;;;;;;;12.73;9.52;;;;;;;;;;4867012;29;20057;-82
2023/07/17 00:45:58;;;;;;;13.50;10.15;;;;;;;;;;4867238;29;20057;-84
2023/07/17 00:48:44;;;;;;;16.35;9.95;;;;;;;;;;4872430;29;20045;-81
2023/07/17 00:51:30;;;;;;;13.85;10.30;;;;;;;;;;4867575;29;20045;-81
2023/07/17 00:54:18;;;;;;;19.90;11.48;;;;;;;;;;4872297;29;20049;-81
2023/07/17 00:57:05;;;;;;;13.25;10.52;;;;;;;;;;4872406;29;20053;-85
2023/07/17 00:59:50;;;;;;;12.80;10.52;;;;;;;;;;4867274;29;20049;-84
2023/07/17 01:02:37;;;;;;;16.83;10.95;;;;;;;;;;4866818;29;20050;-82
2023/07/17 01:05:23;;;;;;;12.85;10.30;;;;;;;;;;4867099;29;20041;-84
2023/07/17 01:08:09;;;;;;;14.48;10.90;;;;;;;;;;4866894;29;20049;-83
2023/07/17 01:10:54;;;;;;;16.13;11.30;;;;;;;;;;4867212;29;20399;-83
2023/07/17 01:13:49;;;;;;;15.40;11.18;;;;;;;;;;4867239;29;20403;-81
2023/07/17 01:16:35;;;;;;;11.70;10.50;;;;;;;;;;4872950;29;20041;-82
2023/07/17 01:19:21;;;;;;;15.98;10.70;;;;;;;;;;4871993;29;20049;-81
2023/07/17 01:22:26;;;;;;;16.35;11.13;;;;;;;;;;4867072;29;20053;-80
2023/07/17 01:25:11;;;;;;;13.80;10.90;;;;;;;;;;4872274;29;20045;-81
2023/07/17 01:27:58;;;;;;;16.75;11.60;;;;;;;;;;4872162;29;20045;-83
2023/07/17 01:30:43;;;;;;;17.20;11.45;;;;;;;;;;4869981;29;20057;-83
2023/07/17 01:33:31;;;;;;;13.43;11.00;;;;;;;;;;4876277;29;20041;-80
2023/07/17 01:36:18;;;;;;;16.15;11.68;;;;;;;;;;4876078;29;20045;-81
2023/07/17 01:39:03;;;;;;;13.38;10.70;;;;;;;;;;4866571;29;20053;-81
2023/07/17 01:41:49;;;;;;;15.45;11.48;;;;;;;;;;4862950;29;20053;-81
2023/07/17 01:44:36;;;;;;;15.40;10.82;;;;;;;;;;4869101;29;20049;-80
2023/07/17 01:47:24;;;;;;;16.35;10.93;;;;;;;;;;4862818;29;20403;-80
2023/07/17 01:50:09;;;;;;;15.52;10.63;;;;;;;;;;4849994;29;20046;-83
2023/07/17 01:52:55;;;;;;;13.95;11.07;;;;;;;;;;4863793;29;20049;-80
2023/07/17 01:55:40;;;;;;;13.02;11.63;;;;;;;;;;4863812;29;20053;-80
2023/07/17 01:58:26;;;;;;;15.05;10.85;;;;;;;;;;4841943;29;20045;-81
2023/07/17 02:01:12;;;;;;;16.27;11.57;;;;;;;;;;4856000;29;20053;-81
2023/07/17 02:03:57;;;;;;;15.45;11.45;;;;;;;;;;4846344;29;20053;-79
2023/07/17 02:06:45;;;;;;;14.23;11.23;;;;;;;;;;4863530;29;20053;-81
2023/07/17 02:09:30;;;;;;;14.88;11.73;;;;;;;;;;4863462;29;20049;-79
2023/07/17 02:12:16;;;;;;;16.73;11.52;;;;;;;;;;4862778;29;20396;-79
2023/07/17 02:15:02;;;;;;;17.60;10.95;;;;;;;;;;4855764;29;20503;-82
2023/07/17 02:17:48;;;;;;;13.60;11.23;;;;;;;;;;4868620;29;20045;-81
2023/07/17 02:20:34;;;;;;;14.30;11.13;;;;;;;;;;4868517;29;20057;-84
2023/07/17 02:23:20;;;;;;;16.02;10.90;;;;;;;;;;4862736;29;20045;-83
2023/07/17 02:26:06;;;;;;;15.40;11.10;;;;;;;;;;4868572;29;20475;-79
2023/07/17 02:28:51;;;;;;;15.90;10.88;;;;;;;;;;4881462;29;20399;-82
2023/07/17 02:31:37;;;;;;;16.08;11.05;;;;;;;;;;4867931;29;20053;-80
2023/07/17 02:34:22;;;;;;;15.15;12.00;;;;;;;;;;4868222;29;20046;-77
2023/07/17 02:37:11;;;;;;;17.08;11.80;;;;;;;;;;4868952;29;20049;-77
2023/07/17 02:39:58;;;;;;;18.77;11.07;;;;;;;;;;4863313;29;20057;-79
2023/07/17 02:42:43;;;;;;;13.65;11.43;;;;;;;;;;4868380;29;20408;-76
2023/07/17 02:45:30;;;;;;;22.23;11.23;;;;;;;;;;4862764;29;20042;-77
2023/07/17 02:48:17;;;;;;;19.48;11.25;;;;;;;;;;4862843;29;20045;-78
2023/07/17 02:51:03;;;;;;;16.00;11.15;;;;;;;;;;4862637;29;20050;-76
2023/07/17 02:53:48;;;;;;;17.77;12.27;;;;;;;;;;4862617;29;20053;-77
2023/07/17 02:56:33;;;;;;;15.88;11.77;;;;;;;;;;4867724;29;20181;-77
2023/07/17 02:59:18;;;;;;;16.73;12.77;;;;;;;;;;4862134;29;20053;-77
2023/07/17 03:02:05;;;;;;;14.65;12.32;;;;;;;;;;4868764;29;20049;-78
2023/07/17 03:04:50;;;;;;;19.55;11.30;;;;;;;;;;4881185;29;20045;-78
2023/07/17 03:07:38;;;;;;;16.35;12.23;;;;;;;;;;4881048;29;20052;-78
2023/07/17 03:10:23;;;;;;;15.40;11.98;;;;;;;;;;4886293;29;20052;-77
2023/07/17 03:13:09;;;;;;;19.92;11.73;;;;;;;;;;4881277;29;20049;-78
2023/07/17 03:15:58;;;;;;;15.32;12.13;;;;;;;;;;4881109;29;20476;-78
2023/07/17 03:18:44;;;;;;;21.98;12.13;;;;;;;;;;4886103;29;20048;-78
2023/07/17 03:21:30;;;;;;;15.25;11.55;;;;;;;;;;4880857;29;20487;-77
2023/07/17 03:24:15;;;;;;;15.90;11.90;;;;;;;;;;4885868;29;20045;-76
2023/07/17 03:27:01;;;;;;;14.32;11.77;;;;;;;;;;4880560;29;20053;-77
2023/07/17 03:29:47;;;;;;;14.55;11.15;;;;;;;;;;4885923;29;20483;-79
2023/07/17 03:32:36;;;;;;;15.20;11.30;;;;;;;;;;4885358;29;20407;-78
2023/07/17 03:35:20;;;;;;;14.50;11.52;;;;;;;;;;4884092;29;20049;-78
2023/07/17 03:38:06;;;;;;;15.70;11.43;;;;;;;;;;4880539;29;20049;-78
2023/07/17 03:40:51;;;;;;;15.07;11.35;;;;;;;;;;4885598;29;20041;-78
2023/07/17 03:43:36;;;;;;;15.50;11.70;;;;;;;;;;4880747;29;20044;-78
2023/07/17 03:46:22;;;;;;;14.75;11.68;;;;;;;;;;4885106;29;20045;-79
2023/07/17 03:49:08;;;;;;;14.05;11.07;;;;;;;;;;4893884;29;20048;-79
2023/07/17 03:51:54;;;;;;;13.10;11.25;;;;;;;;;;4880842;29;20048;-79
2023/07/17 03:54:40;;;;;;;15.43;10.45;;;;;;;;;;4880188;29;20057;-77
2023/07/17 03:57:25;;;;;;;14.27;10.90;;;;;;;;;;4886416;29;20044;-78
2023/07/17 04:00:15;;;;;;;18.40;10.82;;;;;;;;;;4884881;29;20052;-80
2023/07/17 04:03:00;;;;;;;16.15;11.15;;;;;;;;;;4872098;29;20057;-78
2023/07/17 04:05:56;;;;;;;22.08;13.48;;;;;;;;;;4866679;29;20057;-80
2023/07/17 04:08:41;;;;;;;22.50;13.60;;;;;;;;;;4853681;29;20045;-80
2023/07/17 04:11:26;;;;;;;19.17;12.60;;;;;;;;;;4866524;29;20480;-80
2023/07/17 04:14:13;;;;;;;24.38;12.25;;;;;;;;;;4866604;29;20053;-80
2023/07/17 04:16:58;;;;;;;12.90;11.38;;;;;;;;;;4866678;29;20053;-78
2023/07/17 04:19:44;;;;;;;16.33;11.50;;;;;;;;;;4866312;29;20045;-80
2023/07/17 04:22:29;;;;;;;17.95;11.77;;;;;;;;;;4866072;29;20088;-78
2023/07/17 04:25:15;;;;;;;15.85;11.35;;;;;;;;;;4866581;29;20045;-78
2023/07/17 04:28:02;;;;;;;14.95;11.43;;;;;;;;;;4866581;29;20054;-79
2023/07/17 04:30:48;;;;;;;13.35;10.80;;;;;;;;;;4853609;29;20487;-78
2023/07/17 04:33:33;;;;;;;14.13;11.18;;;;;;;;;;4866615;29;20049;-77
2023/07/17 04:36:20;;;;;;;13.73;10.60;;;;;;;;;;4865796;29;20045;-78
2023/07/17 04:39:05;;;;;;;15.07;11.07;;;;;;;;;;4861082;29;20410;-78
2023/07/17 04:41:52;;;;;;;13.18;10.07;;;;;;;;;;4866493;29;20053;-78
2023/07/17 04:44:39;;;;;;;17.98;10.25;;;;;;;;;;4865997;29;20049;-77
2023/07/17 04:47:26;;;;;;;18.02;10.57;;;;;;;;;;4861047;29;20492;-79
2023/07/17 04:50:12;;;;;;;13.73;10.43;;;;;;;;;;4859833;29;20045;-77
2023/07/17 04:52:59;;;;;;;12.80;10.27;;;;;;;;;;4866187;29;20049;-77
2023/07/17 04:55:45;;;;;;;12.13;10.15;;;;;;;;;;4865871;29;20053;-78
2023/07/17 04:58:32;;;;;;;17.25;9.98;;;;;;;;;;4866081;29;20045;-77
2023/07/17 05:01:21;;;;;;;17.13;9.93;;;;;;;;;;4860873;29;20054;-79
2023/07/17 05:04:07;;;;;;;16.52;10.05;;;;;;;;;;4860854;29;20062;-80
2023/07/17 05:06:52;;;;;;;14.07;10.15;;;;;;;;;;4865683;29;20503;-79
2023/07/17 05:09:38;;;;;;;15.48;9.50;;;;;;;;;;4866127;29;20050;-79
2023/07/17 05:12:24;;;;;;;12.65;9.13;;;;;;;;;;4865831;29;20404;-77
2023/07/17 05:15:11;;;;;;;12.70;9.15;;;;;;;;;;4867293;29;20045;-78
2023/07/17 05:17:59;;;;;;;12.98;9.38;;;;;;;;;;4869675;29;20045;-80
2023/07/17 05:20:48;;;;;;;11.15;9.18;;;;;;;;;;4869538;29;20049;-80
2023/07/17 05:23:33;;;;;;;14.10;9.93;;;;;;;;;;4868646;29;20061;-77
2023/07/17 05:26:21;;;;;;;14.23;9.48;;;;;;;;;;4869324;29;20049;-78
2023/07/17 05:29:07;;;;;;;54.42;13.95;;;;;;;;;;4870324;29;20045;-78
2023/07/17 05:31:53;;;;;;;16.88;10.25;;;;;;;;;;4856604;29;20049;-78
2023/07/17 05:34:40;;;;;;;21.67;9.98;;;;;;;;;;4869198;29;20049;-81
2023/07/17 05:37:26;;;;;;;18.38;11.20;;;;;;;;;;4864159;29;20061;-78
2023/07/17 05:40:13;;;;;;;16.88;10.35;;;;;;;;;;4868664;29;20045;-76
2023/07/17 05:42:58;;;;;;;14.85;10.13;;;;;;;;;;4869079;29;20049;-78
2023/07/17 05:45:44;;;;;;;13.00;9.70;;;;;;;;;;4869140;29;20053;-78
2023/07/17 05:48:29;;;;;;;19.77;11.32;;;;;;;;;;4868839;29;20396;-81
2023/07/17 05:51:14;;;;;;;15.98;10.50;;;;;;;;;;4862783;29;20419;-80
2023/07/17 05:54:00;;;;;;;17.15;9.93;;;;;;;;;;4869238;29;20046;-80
2023/07/17 05:56:45;;;;;;;36.97;32.42;;;;;;;;;;4868846;29;20045;-81
2023/07/17 05:59:31;;;;;;;39.85;35.33;;;;;;;;;;4868475;29;20046;-78
2023/07/17 06:02:16;;;;;;;300.42;268.08;;;;;;;;;;4873616;29;20045;-81
2023/07/17 06:05:02;;;;;;;54.80;43.92;;;;;;;;;;4865494;29;20041;-79
2023/07/17 06:07:47;;;;;;;12.88;10.60;;;;;;;;;;4863687;29;20053;-78
2023/07/17 06:10:33;;;;;;;197.00;176.57;;;;;;;;;;4869722;29;20086;-78
2023/07/17 06:13:20;;;;;;;20.02;15.63;;;;;;;;;;4863528;29;20057;-81
2023/07/17 06:16:06;;;;;;;12.63;9.98;;;;;;;;;;4863179;29;20041;-81
2023/07/17 06:18:52;;;;;;;15.93;10.88;;;;;;;;;;4869323;29;20049;-76
2023/07/17 06:21:37;;;;;;;17.08;10.05;;;;;;;;;;4862490;29;20045;-78
2023/07/17 06:24:23;;;;;;;12.30;9.18;;;;;;;;;;4868048;29;20045;-78
2023/07/17 06:27:09;;;;;;;16.48;9.60;;;;;;;;;;4860869;29;20050;-78
2023/07/17 06:29:54;;;;;;;12.52;9.27;;;;;;;;;;4868121;29;20058;-81
2023/07/17 06:32:40;;;;;;;12.05;9.23;;;;;;;;;;4861512;29;20496;-78
2023/07/17 06:35:26;;;;;;;12.02;8.65;;;;;;;;;;4861874;29;20052;-81
2023/07/17 06:38:11;;;;;;;10.25;8.73;;;;;;;;;;4868735;29;20046;-78
2023/07/17 06:40:57;;;;;;;14.07;9.05;;;;;;;;;;4862625;29;20046;-81
2023/07/17 06:43:43;;;;;;;11.07;8.15;;;;;;;;;;4862805;29;20049;-80
2023/07/17 06:46:28;;;;;;;11.57;8.43;;;;;;;;;;4868504;29;20045;-80
2023/07/17 06:49:13;;;;;;;13.30;8.23;;;;;;;;;;4861872;29;20484;-80
2023/07/17 06:51:59;;;;;;;10.68;8.40;;;;;;;;;;4861580;29;20053;-79
2023/07/17 06:54:44;;;;;;;11.68;8.30;;;;;;;;;;4868128;29;20053;-79
2023/07/17 06:57:30;;;;;;;16.08;7.97;;;;;;;;;;4848689;29;20057;-81
2023/07/17 07:00:15;;;;;;;14.27;8.93;;;;;;;;;;4862461;29;20049;-79
2023/07/17 07:03:01;;;;;;;12.50;8.57;;;;;;;;;;4862097;29;20062;-78
2023/07/17 07:05:59;;;;;;;11.63;8.50;;;;;;;;;;4854536;29;20050;-79
2023/07/17 07:08:47;;;;;;;12.95;9.25;;;;;;;;;;4862598;29;20041;-80
2023/07/17 07:11:32;;;;;;;11.40;9.10;;;;;;;;;;4869072;29;20053;-79
2023/07/17 07:14:17;;;;;;;13.70;8.50;;;;;;;;;;4862125;29;20057;-79
2023/07/17 07:17:02;;;;;;;12.07;8.60;;;;;;;;;;4862362;29;20050;-77
2023/07/17 07:19:50;;;;;;;12.57;8.25;;;;;;;;;;4862102;29;20057;-79
2023/07/17 07:22:35;;;;;;;11.07;8.27;;;;;;;;;;4862441;29;20488;-82
2023/07/17 07:25:21;;;;;;;12.40;8.68;;;;;;;;;;4861995;29;20404;-79
2023/07/17 07:28:07;;;;;;;13.50;9.00;;;;;;;;;;4868788;29;20049;-79
2023/07/17 07:30:57;;;;;;;14.13;9.75;;;;;;;;;;4861850;29;20049;-81
2023/07/17 07:33:43;;;;;;;10.95;8.73;;;;;;;;;;4862437;29;20041;-78
2023/07/17 07:36:28;;;;;;;20.58;9.15;;;;;;;;;;4862090;29;20053;-80
2023/07/17 07:39:14;;;;;;;17.20;9.75;;;;;;;;;;4867262;29;20049;-79
2023/07/17 07:41:59;;;;;;;14.55;9.13;;;;;;;;;;4862120;29;20041;-82
2023/07/17 07:44:45;;;;;;;13.13;9.82;;;;;;;;;;4867072;29;20041;-73
2023/07/17 07:47:31;;;;;;;11.75;9.05;;;;;;;;;;4862010;29;20045;-74
2023/07/17 07:50:16;;;;;;;10.57;9.10;;;;;;;;;;4867865;29;20045;-74
2023/07/17 07:53:02;;;;;;;15.50;9.50;;;;;;;;;;4867996;29;20498;-75
2023/07/17 07:55:47;;;;;;;11.25;9.00;;;;;;;;;;4861520;29;20045;-75
2023/07/17 07:58:33;;;;;;;13.13;10.07;;;;;;;;;;4867790;29;20053;-75
2023/07/17 08:01:18;;;;;;;15.38;9.80;;;;;;;;;;4861431;29;20037;-75
2023/07/17 08:04:04;;;;;;;14.05;9.70;;;;;;;;;;4861133;29;20045;-74
2023/07/17 08:06:50;;;;;;;13.52;10.02;;;;;;;;;;4861350;29;20046;-75
2023/07/17 08:09:35;;;;;;;12.38;9.90;;;;;;;;;;4867180;29;20403;-75
2023/07/17 08:12:21;;;;;;;13.95;9.98;;;;;;;;;;4867857;29;20053;-76
2023/07/17 08:15:07;;;;;;;12.40;10.10;;;;;;;;;;4867716;29;20488;-75
2023/07/17 08:17:53;;;;;;;13.48;9.57;;;;;;;;;;4861576;29;20045;-75
2023/07/17 08:20:39;;;;;;;17.35;10.15;;;;;;;;;;4867057;29;20487;-75
2023/07/17 08:23:28;;;;;;;17.77;10.10;;;;;;;;;;4861660;29;20500;-77
2023/07/17 08:26:13;;;;;;;13.55;9.90;;;;;;;;;;4867751;29;20049;-75
2023/07/17 08:29:00;;;;;;;12.77;9.88;;;;;;;;;;4861227;29;20041;-74
2023/07/17 08:31:46;;;;;;;16.92;10.07;;;;;;;;;;4861286;29;20053;-76
2023/07/17 08:34:31;;;;;;;14.30;9.82;;;;;;;;;;4861316;29;20487;-75
2023/07/17 08:37:17;;;;;;;14.40;10.68;;;;;;;;;;4861427;29;20045;-76
2023/07/17 08:40:03;;;;;;;12.60;11.02;;;;;;;;;;4861455;29;20041;-77
2023/07/17 08:42:50;;;;;;;14.73;10.32;;;;;;;;;;4861344;29;20050;-77
2023/07/17 08:45:36;;;;;;;13.60;10.40;;;;;;;;;;4861166;29;20053;-76
2023/07/17 08:48:24;;;;;;;14.70;11.13;;;;;;;;;;4860255;29;20050;-75
2023/07/17 08:51:13;;;;;;;16.52;11.73;;;;;;;;;;4864671;29;20045;-75
2023/07/17 08:54:00;;;;;;;16.63;10.65;;;;;;;;;;4865135;29;20053;-76
2023/07/17 08:56:46;;;;;;;15.57;11.88;;;;;;;;;;4865293;29;20046;-76
2023/07/17 08:59:34;;;;;;;16.25;11.18;;;;;;;;;;4865211;29;20054;-75
2023/07/17 09:02:19;;;;;;;15.45;10.68;;;;;;;;;;4864279;29;20046;-76
2023/07/17 09:05:07;;;;;;;17.48;10.70;;;;;;;;;;4864629;29;20049;-76
2023/07/17 09:07:52;;;;;;;17.15;11.35;;;;;;;;;;4864778;29;20049;-74
2023/07/17 09:10:39;;;;;;;20.67;10.85;;;;;;;;;;4864665;29;20046;-74
2023/07/17 09:13:25;;;;;;;18.23;11.73;;;;;;;;;;4870371;29;20049;-73
2023/07/17 09:16:18;;;;;;;18.00;11.07;;;;;;;;;;4864290;29;20407;-78
2023/07/17 09:19:03;;;;;;;15.57;10.65;;;;;;;;;;4864564;29;20046;-78
2023/07/17 09:21:48;;;;;;;19.33;11.13;;;;;;;;;;4869207;29;20045;-78
2023/07/17 09:24:36;;;;;;;21.77;11.55;;;;;;;;;;4870551;29;20053;-78
2023/07/17 09:27:22;;;;;;;19.58;11.75;;;;;;;;;;4870259;29;20045;-78
2023/07/17 09:30:12;;;;;;;13.98;10.77;;;;;;;;;;4870444;29;20045;-79
2023/07/17 09:33:04;;;;;;;15.05;11.35;;;;;;;;;;4863981;29;20049;-77
2023/07/17 09:35:56;;;;;;;23.08;11.55;;;;;;;;;;4870157;29;20045;-76
2023/07/17 09:38:42;;;;;;;12.40;10.18;;;;;;;;;;4862765;29;20149;-78
2023/07/17 09:41:28;;;;;;;21.08;10.38;;;;;;;;;;4870140;29;20053;-77
2023/07/17 09:44:19;;;;;;;11.48;9.75;;;;;;;;;;4869147;29;20049;-79
2023/07/17 09:47:05;;;;;;;15.93;9.48;;;;;;;;;;4863781;29;20050;-76
2023/07/17 09:49:51;;;;;;;15.02;9.80;;;;;;;;;;4869953;29;20054;-74
2023/07/17 09:52:37;;;;;;;11.80;9.90;;;;;;;;;;4870203;29;20515;-75
2023/07/17 09:55:28;;;;;;;14.48;9.20;;;;;;;;;;4863904;29;20400;-75
2023/07/17 09:58:17;;;;;;;11.88;8.93;;;;;;;;;;4863748;29;20049;-76
2023/07/17 10:01:04;;;;;;;18.40;9.32;;;;;;;;;;4862817;29;20049;-75
2023/07/17 10:03:50;;;;;;;14.65;9.45;;;;;;;;;;4863483;29;20054;-75
2023/07/17 10:06:41;;;;;;;10.43;8.48;;;;;;;;;;4863502;29;20049;-74
2023/07/17 10:09:29;;;;;;;15.25;9.32;;;;;;;;;;4863633;29;20484;-76
2023/07/17 10:12:16;;;;;;;12.57;9.32;;;;;;;;;;4862080;29;20049;-75
2023/07/17 10:15:04;;;;;;;13.48;9.10;;;;;;;;;;4863979;29;20046;-76
2023/07/17 10:17:57;;;;;;;25.48;9.13;;;;;;;;;;4866859;29;20046;-77
2023/07/17 10:20:52;;;;;;;17.20;9.95;;;;;;;;;;4862662;29;20380;-75
2023/07/17 10:23:42;;;;;;;16.10;9.02;;;;;;;;;;4862530;29;20049;-74
2023/07/17 10:26:28;;;;;;;13.15;9.45;;;;;;;;;;4862585;29;20045;-75
2023/07/17 10:29:15;;;;;;;13.18;8.43;;;;;;;;;;4863249;29;20045;-75
2023/07/17 10:32:08;;;;;;;18.42;9.35;;;;;;;;;;4863123;29;20049;-74
2023/07/17 10:34:54;;;;;;;17.80;9.38;;;;;;;;;;4862858;29;20045;-74
2023/07/17 10:37:41;;;;;;;14.30;8.82;;;;;;;;;;4863035;29;20061;-74
2023/07/17 10:40:27;;;;;;;14.05;8.57;;;;;;;;;;4862918;29;20049;-76
2023/07/17 10:43:17;;;;;;;13.70;9.20;;;;;;;;;;4868977;29;20045;-75
2023/07/17 10:46:11;;;;;;;15.95;8.98;;;;;;;;;;4868784;29;20053;-73
2023/07/17 10:49:06;;;;;;;12.80;8.13;;;;;;;;;;4867782;29;20053;-73
2023/07/17 10:51:52;;;;;;;11.57;8.85;;;;;;;;;;4862722;29;20054;-73
2023/07/17 10:54:43;;;;;;;11.57;8.30;;;;;;;;;;4862669;29;20077;-75
2023/07/17 10:57:33;;;;;;;13.50;8.98;;;;;;;;;;4861210;29;20049;-75
2023/07/17 11:00:18;;;;;;;15.05;8.57;;;;;;;;;;4860571;29;20046;-75
2023/07/17 11:03:03;;;;;;;12.88;8.45;;;;;;;;;;4851726;29;20057;-74
2023/07/17 11:05:48;;;;;;;10.93;8.68;;;;;;;;;;4868825;29;20049;-75
2023/07/17 11:08:33;;;;;;;10.45;8.45;;;;;;;;;;4862618;29;20041;-77
2023/07/17 11:11:19;;;;;;;15.02;8.13;;;;;;;;;;4868121;29;20061;-76
2023/07/17 11:14:05;;;;;;;11.68;8.00;;;;;;;;;;4868553;29;20484;-77
2023/07/17 11:16:52;;;;;;;12.98;7.82;;;;;;;;;;4863169;29;20049;-75
2023/07/17 11:19:37;;;;;;;12.73;8.18;;;;;;;;;;4868710;29;20045;-75
2023/07/17 11:22:29;;;;;;;20.65;8.35;;;;;;;;;;4868442;29;20049;-77
2023/07/17 11:25:15;;;;;;;13.00;8.32;;;;;;;;;;4868236;29;20054;-75
2023/07/17 11:28:01;;;;;;;14.43;8.70;;;;;;;;;;4862276;29;20037;-74
2023/07/17 11:30:47;;;;;;;11.63;8.02;;;;;;;;;;4862131;29;20037;-74
2023/07/17 11:33:33;;;;;;;12.75;7.85;;;;;;;;;;4861844;29;20045;-75
2023/07/17 11:36:18;;;;;;;14.70;8.00;;;;;;;;;;4861956;29;20410;-76
2023/07/17 11:39:12;;;;;;;9.48;7.60;;;;;;;;;;4867938;29;20041;-74
2023/07/17 11:41:58;;;;;;;;;;;;;;;;;;4868176;29;20061;-76
2023/07/17 11:44:43;;;;;;;13.38;7.55;;;;;;;;;;4868065;29;20378;-76
2023/07/17 11:47:29;;;;;;;12.18;7.75;;;;;;;;;;4861848;29;20045;-75
2023/07/17 11:50:19;;;;;;;10.82;7.13;;;;;;;;;;4861520;29;20049;-76
2023/07/17 11:53:12;;;;;;;10.85;6.85;;;;;;;;;;4868153;29;20049;-80
2023/07/17 11:56:20;;;;;;;13.88;6.90;;;;;;;;;;4859871;29;20049;-76
2023/07/17 11:59:06;;;;;;;9.25;6.63;;;;;;;;;;4867837;29;20049;-78
2023/07/17 12:01:59;;;;;;;10.35;6.45;;;;;;;;;;4861026;29;20500;-78
2023/07/17 12:04:49;;;;;;;9.32;6.38;;;;;;;;;;4867616;29;20067;-76
2023/07/17 12:07:35;;;;;;;11.63;6.32;;;;;;;;;;4866902;29;20403;-75
2023/07/17 12:10:20;;;;;;;12.65;6.22;;;;;;;;;;4868084;29;20045;-77
2023/07/17 12:13:07;;;;;;;8.00;5.47;;;;;;;;;;4867534;29;20061;-78
2023/07/17 12:15:53;;;;;;;9.25;6.07;;;;;;;;;;4861546;29;20049;-77
2023/07/17 12:18:42;;;;;;;10.27;5.93;;;;;;;;;;4843219;29;20045;-77
2023/07/17 12:21:28;;;;;;;11.05;5.80;;;;;;;;;;4867994;29;20045;-76
2023/07/17 12:24:15;;;;;;;8.25;5.53;;;;;;;;;;4860000;29;20045;-77
2023/07/17 12:27:00;;;;;;;10.80;5.90;;;;;;;;;;4860321;29;20053;-76
2023/07/17 12:29:45;;;;;;;7.60;5.25;;;;;;;;;;4866771;29;20050;-79
2023/07/17 12:32:34;;;;;;;7.72;5.30;;;;;;;;;;4866630;29;20042;-77
2023/07/17 12:35:20;;;;;;;10.07;5.40;;;;;;;;;;4861223;29;20045;-77
2023/07/17 12:38:06;;;;;;;6.65;5.30;;;;;;;;;;4865844;29;20502;-75
2023/07/17 12:40:51;;;;;;;8.63;5.28;;;;;;;;;;4860650;29;20046;-74
2023/07/17 12:43:37;;;;;;;9.32;5.10;;;;;;;;;;4867466;29;20049;-74
2023/07/17 12:46:23;;;;;;;10.45;4.85;;;;;;;;;;4867271;29;20547;-74
2023/07/17 12:49:11;;;;;;;7.00;4.82;;;;;;;;;;4861073;29;20058;-74
2023/07/17 12:51:57;;;;;;;9.88;5.00;;;;;;;;;;4860973;29;20500;-75
2023/07/17 12:54:42;;;;;;;11.20;5.35;;;;;;;;;;4867086;29;20045;-75
2023/07/17 12:57:28;;;;;;;8.27;5.85;;;;;;;;;;4867405;29;20484;-74
2023/07/17 13:00:15;;;;;;;10.40;5.68;;;;;;;;;;4860907;29;20057;-75
2023/07/17 13:03:08;;;;;;;10.18;5.65;;;;;;;;;;4865753;29;20054;-78
2023/07/17 13:05:54;;;;;;;;;;;;;;;;;;4861428;29;20061;-74
2023/07/17 13:08:40;;;;;;;10.93;5.70;;;;;;;;;;4861219;29;20363;-75
2023/07/17 13:11:25;;;;;;;10.13;5.03;;;;;;;;;;4860842;29;20041;-76
2023/07/17 13:14:11;;;;;;;9.88;5.55;;;;;;;;;;4860435;29;20041;-75
2023/07/17 13:16:56;;;;;;;7.68;5.10;;;;;;;;;;4860681;29;20057;-75
2023/07/17 13:19:45;;;;;;;8.90;4.50;;;;;;;;;;4859586;29;20403;-75
2023/07/17 13:22:30;;;;;;;11.27;4.47;;;;;;;;;;4861080;29;20053;-75
2023/07/17 13:25:16;;;;;;;13.13;4.93;;;;;;;;;;4866502;29;20057;-76
2023/07/17 13:28:01;;;;;;;7.55;4.22;;;;;;;;;;4852895;29;20049;-75
2023/07/17 13:30:47;;;;;;;7.82;4.38;;;;;;;;;;4853230;29;20038;-76
2023/07/17 13:33:33;;;;;;;12.73;4.47;;;;;;;;;;4861123;29;20058;-75
2023/07/17 13:36:18;;;;;;;7.00;4.55;;;;;;;;;;4867263;29;20053;-75
2023/07/17 13:39:04;;;;;;;5.65;5.03;;;;;;;;;;4864464;29;20049;-75
2023/07/17 13:41:50;;;;;;;7.75;4.93;;;;;;;;;;4862622;29;20053;-77
2023/07/17 13:44:36;;;;;;;9.25;4.70;;;;;;;;;;4869291;29;20045;-76
2023/07/17 13:47:22;;;;;;;9.93;4.88;;;;;;;;;;4862874;29;20483;-75
2023/07/17 13:50:08;;;;;;;8.63;5.05;;;;;;;;;;4869968;29;20050;-74
2023/07/17 13:52:54;;;;;;;7.47;5.40;;;;;;;;;;4870088;29;20045;-75
2023/07/17 13:55:39;;;;;;;7.03;4.68;;;;;;;;;;4863968;29;20050;-75
2023/07/17 13:58:25;;;;;;;10.02;6.30;;;;;;;;;;4870092;29;20045;-76
2023/07/17 14:01:10;;;;;;;11.65;7.70;;;;;;;;;;4869913;29;20046;-77
2023/07/17 14:03:56;;;;;;;12.90;5.00;;;;;;;;;;4863397;29;20061;-75
2023/07/17 14:06:42;;;;;;;15.30;5.15;;;;;;;;;;4869854;29;20049;-78
2023/07/17 14:09:27;;;;;;;7.47;5.28;;;;;;;;;;4868660;29;20376;-78
2023/07/17 14:12:13;;;;;;;12.85;5.43;;;;;;;;;;4863188;29;20053;-76
2023/07/17 14:14:58;;;;;;;13.98;4.93;;;;;;;;;;4869615;29;20049;-76
2023/07/17 14:17:44;;;;;;;11.00;5.40;;;;;;;;;;4870019;29;20053;-77
2023/07/17 14:20:30;;;;;;;8.57;5.30;;;;;;;;;;4869311;29;20037;-75
2023/07/17 14:23:15;;;;;;;10.80;5.22;;;;;;;;;;4869994;29;20049;-77
2023/07/17 14:26:02;;;;;;;7.20;4.88;;;;;;;;;;4863152;29;20046;-76
2023/07/17 14:28:47;;;;;;;9.05;5.55;;;;;;;;;;4863517;29;20083;-76
2023/07/17 14:31:33;;;;;;;8.73;5.85;;;;;;;;;;4863018;29;20046;-76
2023/07/17 14:34:24;;;;;;;8.20;5.50;;;;;;;;;;4863573;29;20041;-77
2023/07/17 14:37:10;;;;;;;10.52;5.35;;;;;;;;;;4863184;29;20053;-76
2023/07/17 14:39:55;;;;;;;8.57;5.90;;;;;;;;;;4862974;29;20499;-75
2023/07/17 14:42:40;;;;;;;13.18;6.05;;;;;;;;;;4869196;29;20460;-79
2023/07/17 14:45:52;;;;;;;12.88;6.57;;;;;;;;;;4868994;29;20053;-78
2023/07/17 14:48:39;;;;;;;11.27;6.22;;;;;;;;;;4868375;29;20049;-76
2023/07/17 14:51:24;;;;;;;10.05;6.07;;;;;;;;;;4863043;29;20049;-76
2023/07/17 14:54:10;;;;;;;10.52;5.80;;;;;;;;;;4869113;29;20049;-77
2023/07/17 14:56:55;;;;;;;7.78;5.80;;;;;;;;;;4869461;29;20053;-77
2023/07/17 14:59:41;;;;;;;18.10;5.85;;;;;;;;;;4862600;29;20041;-78
2023/07/17 15:02:26;;;;;;;9.13;6.05;;;;;;;;;;4862545;29;20484;-78
2023/07/17 15:05:12;;;;;;;13.20;5.57;;;;;;;;;;4868908;29;20046;-75
2023/07/17 15:08:18;;;;;;;10.70;5.38;;;;;;;;;;4868894;29;20399;-83
2023/07/17 15:11:04;;;;;;;12.35;5.68;;;;;;;;;;4868914;29;20041;-77
2023/07/17 15:13:51;;;;;;;9.77;5.40;;;;;;;;;;4868805;29;20053;-78
2023/07/17 15:16:36;;;;;;;7.30;5.35;;;;;;;;;;4869068;29;20045;-79
2023/07/17 15:19:24;;;;;;;9.90;5.32;;;;;;;;;;4868405;29;20045;-78
2023/07/17 15:22:11;;;;;;;8.02;5.60;;;;;;;;;;4854593;29;20046;-77
2023/07/17 15:24:57;;;;;;;9.82;5.45;;;;;;;;;;4868673;29;20057;-76
2023/07/17 15:27:43;;;;;;;11.25;5.20;;;;;;;;;;4867185;29;20500;-73
2023/07/17 15:30:28;;;;;;;6.03;4.70;;;;;;;;;;4867556;29;20416;-74
2023/07/17 15:33:14;;;;;;;7.72;4.70;;;;;;;;;;4868349;29;20049;-74
2023/07/17 15:36:00;;;;;;;9.60;5.35;;;;;;;;;;4867994;29;20050;-74
2023/07/17 15:38:46;;;;;;;7.97;4.80;;;;;;;;;;4868173;29;20053;-73
2023/07/17 15:41:32;;;;;;;7.25;5.13;;;;;;;;;;4861522;29;20046;-74
2023/07/17 15:44:17;;;;;;;8.68;5.30;;;;;;;;;;4868021;29;20049;-75
2023/07/17 15:47:03;;;;;;;6.47;5.25;;;;;;;;;;4861764;29;20049;-75
2023/07/17 15:49:48;;;;;;;8.18;4.90;;;;;;;;;;4867753;29;20045;-77
2023/07/17 15:52:34;;;;;;;8.73;5.63;;;;;;;;;;4860566;29;20049;-76
2023/07/17 15:55:21;;;;;;;10.25;5.20;;;;;;;;;;4867232;29;20045;-76
2023/07/17 15:58:06;;;;;;;7.10;5.53;;;;;;;;;;4866214;29;20049;-75
2023/07/17 16:00:51;;;;;;;10.32;5.50;;;;;;;;;;4860129;29;20049;-77
2023/07/17 16:03:37;;;;;;;8.45;5.18;;;;;;;;;;4860907;29;20516;-76
2023/07/17 16:06:24;;;;;;;7.80;5.10;;;;;;;;;;4866392;29;20049;-76
2023/07/17 16:09:10;;;;;;;10.30;5.55;;;;;;;;;;4860324;29;20053;-77
2023/07/17 16:11:55;;;;;;;13.90;6.15;;;;;;;;;;4861608;29;20045;-77
2023/07/17 16:14:43;;;;;;;6.10;5.05;;;;;;;;;;4867682;29;20388;-76
2023/07/17 16:17:29;;;;;;;9.55;5.63;;;;;;;;;;4867331;29;20049;-79
2023/07/17 16:20:14;;;;;;;10.35;5.88;;;;;;;;;;4853466;29;20045;-77